createdAt,value
2019-02-26T00:01:57.976Z,57.67
2019-02-26T00:04:29.780Z,64.10
2019-02-26T00:07:02.492Z,55.73
2019-02-26T00:09:35.340Z,55.20
2019-02-26T00:12:08.913Z,54.17
2019-02-26T00:14:43.071Z,59.73
2019-02-26T00:17:15.303Z,55.97
2019-02-26T00:19:46.829Z,64.70
2019-02-26T00:22:18.326Z,56.07
2019-02-26T00:24:49.767Z,62.73
2019-02-26T00:27:21.217Z,68.60
2019-02-26T00:29:53.553Z,62.57
2019-02-26T00:32:25.879Z,63.30
2019-02-26T00:34:59.247Z,58.67
2019-02-26T00:37:32.173Z,63.10
2019-02-26T00:40:03.975Z,59.53
2019-02-26T00:42:36.054Z,61.67
2019-02-26T00:45:08.678Z,59.50
2019-02-26T00:47:41.186Z,67.20
2019-02-26T00:50:14.734Z,56.67
2019-02-26T00:52:52.311Z,64.53
2019-02-26T00:55:29.372Z,61.23
2019-02-26T00:58:01.104Z,63.27
2019-02-26T01:00:35.358Z,66.57
2019-02-26T01:03:08.464Z,68.60
2019-02-26T01:05:40.938Z,60.23
2019-02-26T01:08:19.869Z,66.90
2019-02-26T01:10:51.746Z,75.17
2019-02-26T01:13:25.646Z,69.83
2019-02-26T01:15:56.448Z,61.13
2019-02-26T01:18:28.985Z,66.20
2019-02-26T01:21:03.760Z,60.77
2019-02-26T01:23:34.866Z,68.33
2019-02-26T01:26:06.389Z,64.27
2019-02-26T01:28:39.590Z,68.77
2019-02-26T01:31:11.246Z,71.27
2019-02-26T01:33:42.832Z,67.10
2019-02-26T01:36:16.112Z,64.10
2019-02-26T01:38:49.172Z,70.37
2019-02-26T01:41:22.791Z,67.43
2019-02-26T01:43:54.148Z,72.40
2019-02-26T01:46:25.699Z,70.00
2019-02-26T01:48:58.023Z,67.20
2019-02-26T01:51:30.434Z,65.37
2019-02-26T01:54:01.878Z,75.53
2019-02-26T01:56:34.027Z,63.70
2019-02-26T01:59:06.601Z,70.30
2019-02-26T02:01:40.106Z,78.80
2019-02-26T02:04:12.804Z,76.47
2019-02-26T02:06:44.689Z,72.70
2019-02-26T02:09:18.705Z,73.53
2019-02-26T02:11:51.228Z,66.67
2019-02-26T02:14:22.731Z,76.30
2019-02-26T02:16:54.258Z,77.33
2019-02-26T02:19:30.088Z,73.30
2019-02-26T02:22:02.497Z,70.40
2019-02-26T02:24:34.066Z,70.70
2019-02-26T02:27:05.579Z,76.07
2019-02-26T02:29:43.851Z,67.87
2019-02-26T02:32:13.512Z,74.07
2019-02-26T02:34:44.969Z,68.13
2019-02-26T02:37:18.557Z,66.73
2019-02-26T02:39:49.687Z,73.70
2019-02-26T02:42:22.053Z,76.80
2019-02-26T02:44:53.683Z,72.40
2019-02-26T02:47:27.714Z,72.40
2019-02-26T02:49:58.394Z,69.47
2019-02-26T02:52:32.309Z,68.40
2019-02-26T02:55:04.579Z,63.27
2019-02-26T02:57:36.738Z,66.80
2019-02-26T03:00:10.254Z,68.13
2019-02-26T03:02:43.210Z,74.90
2019-02-26T03:05:15.074Z,66.83
2019-02-26T03:07:50.454Z,66.97
2019-02-26T03:10:19.696Z,72.47
2019-02-26T03:12:53.907Z,70.00
2019-02-26T03:15:29.175Z,71.10
2019-02-26T03:18:00.599Z,62.63
2019-02-26T03:20:37.240Z,64.57
2019-02-26T03:23:08.657Z,70.20
2019-02-26T03:25:44.555Z,74.07
2019-02-26T03:28:15.536Z,78.07
2019-02-26T03:30:47.095Z,69.93
2019-02-26T03:33:18.570Z,70.70
2019-02-26T03:35:50.026Z,70.40
2019-02-26T03:38:24.264Z,72.00
2019-02-26T03:40:59.065Z,69.67
2019-02-26T03:43:31.393Z,75.77
2019-02-26T03:46:02.719Z,65.07
2019-02-26T03:48:35.464Z,70.17
2019-02-26T03:51:07.046Z,69.73
2019-02-26T03:53:50.043Z,73.33
2019-02-26T03:56:22.788Z,73.30
2019-02-26T03:58:56.936Z,66.83
2019-02-26T04:01:27.443Z,71.47
2019-02-26T04:03:59.865Z,74.50
2019-02-26T04:06:34.159Z,70.30
2019-02-26T04:09:08.593Z,86.33
2019-02-26T04:11:45.505Z,81.23
2019-02-26T04:14:17.366Z,76.67
2019-02-26T04:16:47.573Z,75.13
2019-02-26T04:19:19.081Z,78.03
2019-02-26T04:22:32.927Z,72.70
2019-02-26T04:25:30.558Z,74.37
2019-02-26T04:28:59.834Z,75.60
2019-02-26T04:32:43.581Z,71.30
2019-02-26T04:36:11.719Z,75.10
2019-02-26T04:39:29.594Z,72.53
2019-02-26T04:42:37.743Z,70.80
2019-02-26T04:46:13.592Z,67.13
2019-02-26T04:48:45.399Z,73.40
2019-02-26T04:51:16.921Z,70.13
2019-02-26T04:53:50.641Z,75.07
2019-02-26T04:56:24.662Z,77.60
2019-02-26T04:58:56.238Z,77.03
2019-02-26T05:01:27.686Z,74.50
2019-02-26T05:03:59.300Z,70.53
2019-02-26T05:06:30.893Z,71.57
2019-02-26T05:09:02.855Z,76.07
2019-02-26T05:11:40.349Z,72.57
2019-02-26T05:14:11.805Z,74.83
2019-02-26T05:16:43.413Z,77.40
2019-02-26T05:19:17.032Z,76.83
2019-02-26T05:21:48.040Z,70.70
2019-02-26T05:24:21.826Z,79.93
2019-02-26T05:26:52.875Z,79.60
2019-02-26T05:29:24.517Z,74.53
2019-02-26T05:31:58.106Z,79.70
2019-02-26T05:34:29.336Z,72.63
2019-02-26T05:37:02.427Z,78.53
2019-02-26T05:39:54.603Z,83.30
2019-02-26T05:42:26.347Z,74.43
2019-02-26T05:45:00.718Z,91.07
2019-02-26T05:47:31.197Z,86.77
2019-02-26T05:50:06.224Z,85.17
2019-02-26T05:52:36.035Z,79.00
2019-02-26T05:55:07.595Z,81.23
2019-02-26T05:57:39.127Z,82.87
2019-02-26T06:00:13.455Z,80.33
2019-02-26T06:02:47.311Z,78.60
2019-02-26T06:05:18.396Z,80.20
2019-02-26T06:07:52.029Z,83.67
2019-02-26T06:10:24.474Z,83.30
2019-02-26T06:13:02.762Z,78.07
2019-02-26T06:15:35.176Z,79.50
2019-02-26T06:18:06.829Z,87.80
2019-02-26T06:20:38.303Z,96.30
2019-02-26T06:23:09.821Z,90.13
2019-02-26T06:25:41.413Z,76.67
2019-02-26T06:28:15.391Z,81.70
2019-02-26T06:30:46.437Z,88.77
2019-02-26T06:33:24.113Z,79.10
2019-02-26T06:35:57.063Z,82.63
2019-02-26T06:38:32.191Z,79.37
2019-02-26T06:41:02.472Z,85.00
2019-02-26T06:43:37.499Z,80.07
2019-02-26T06:46:09.249Z,83.60
2019-02-26T06:48:40.611Z,87.60
2019-02-26T06:51:12.253Z,97.60
2019-02-26T06:53:47.100Z,87.83
2019-02-26T06:56:17.992Z,93.60
2019-02-26T06:58:49.909Z,99.97
2019-02-26T07:01:21.335Z,82.90
2019-02-26T07:03:53.852Z,77.27
2019-02-26T07:06:27.711Z,90.27
2019-02-26T07:08:59.448Z,84.30
2019-02-26T07:11:33.132Z,81.30
2019-02-26T07:14:05.657Z,83.20
2019-02-26T07:16:41.890Z,75.17
2019-02-26T07:19:14.186Z,81.30
2019-02-26T07:21:48.020Z,83.43
2019-02-26T07:24:22.494Z,81.67
2019-02-26T07:26:53.378Z,71.20
2019-02-26T07:29:24.845Z,75.93
2019-02-26T07:31:57.014Z,84.27
2019-02-26T07:34:29.511Z,80.40
2019-02-26T07:37:01.014Z,76.57
2019-02-26T07:39:32.525Z,75.50
2019-02-26T07:42:03.938Z,75.27
2019-02-26T07:44:35.419Z,84.73
2019-02-26T07:47:08.865Z,79.27
2019-02-26T07:49:40.082Z,74.70
2019-02-26T07:52:12.514Z,82.33
2019-02-26T07:54:44.709Z,77.40
2019-02-26T07:57:18.191Z,89.00
2019-02-26T07:59:51.192Z,91.00
2019-02-26T08:02:22.706Z,76.63
2019-02-26T08:04:54.238Z,76.70
2019-02-26T08:07:26.732Z,91.43
2019-02-26T08:09:58.951Z,78.73
2019-02-26T08:12:32.742Z,75.63
2019-02-26T08:15:07.415Z,71.10
2019-02-26T08:17:37.025Z,73.80
2019-02-26T08:20:12.853Z,82.20
2019-02-26T08:22:44.833Z,82.30
2019-02-26T08:25:16.520Z,74.07
2019-02-26T08:27:49.913Z,81.43
2019-02-26T08:30:23.494Z,80.83
2019-02-26T08:32:56.420Z,81.10
2019-02-26T08:35:27.864Z,77.00
2019-02-26T08:37:59.369Z,93.43
2019-02-26T08:40:31.069Z,90.13
2019-02-26T08:43:02.675Z,85.83
2019-02-26T08:45:34.407Z,80.53
2019-02-26T08:48:06.383Z,80.17
2019-02-26T08:50:38.973Z,73.43
2019-02-26T08:53:11.144Z,79.50
2019-02-26T08:55:42.690Z,78.47
2019-02-26T08:58:14.196Z,77.50
2019-02-26T09:00:46.843Z,80.43
2019-02-26T09:03:20.376Z,76.67
2019-02-26T09:05:53.838Z,81.80
2019-02-26T09:08:24.870Z,73.30
2019-02-26T09:10:56.349Z,81.17
2019-02-26T09:13:28.039Z,76.23
2019-02-26T09:16:01.010Z,76.60
2019-02-26T09:18:36.149Z,75.03
2019-02-26T09:21:09.989Z,71.67
2019-02-26T09:23:41.231Z,72.73
2019-02-26T09:26:12.920Z,73.67
2019-02-26T09:28:47.049Z,72.73
2019-02-26T09:31:17.836Z,72.73
2019-02-26T09:33:49.373Z,84.37
2019-02-26T09:36:23.499Z,73.37
2019-02-26T09:38:54.086Z,72.30
2019-02-26T09:41:25.555Z,74.37
2019-02-26T09:43:59.175Z,74.50
2019-02-26T09:46:31.737Z,72.73
2019-02-26T09:49:05.084Z,73.27
2019-02-26T09:51:37.602Z,75.20
2019-02-26T09:54:12.650Z,64.93
2019-02-26T09:56:43.405Z,72.50
2019-02-26T09:59:14.899Z,66.00
2019-02-26T10:01:46.438Z,69.67
2019-02-26T10:04:19.696Z,69.80
2019-02-26T10:06:51.181Z,76.07
2019-02-26T10:09:22.634Z,67.13
2019-02-26T10:11:54.245Z,66.77
2019-02-26T10:14:26.974Z,72.73
2019-02-26T10:17:00.651Z,66.53
2019-02-26T10:19:33.734Z,69.73
2019-02-26T10:22:12.590Z,66.20
2019-02-26T10:24:44.518Z,60.47
2019-02-26T10:27:18.903Z,67.13
2019-02-26T10:29:50.370Z,65.47
2019-02-26T10:32:24.287Z,62.90
2019-02-26T10:34:58.693Z,56.23
2019-02-26T10:37:33.385Z,66.80
2019-02-26T10:40:03.420Z,58.03
2019-02-26T10:42:39.832Z,59.33
2019-02-26T10:45:12.538Z,61.20
2019-02-26T10:47:55.623Z,59.10
2019-02-26T10:50:31.137Z,60.00
2019-02-26T10:53:06.849Z,69.07
2019-02-26T10:55:38.378Z,61.80
2019-02-26T10:58:09.970Z,58.20
2019-02-26T11:00:39.727Z,61.20
2019-02-26T11:03:12.935Z,58.33
2019-02-26T11:05:45.168Z,54.70
2019-02-26T11:08:20.592Z,63.70
2019-02-26T11:10:52.492Z,62.80
2019-02-26T11:13:25.656Z,59.37
2019-02-26T11:15:59.786Z,55.07
2019-02-26T11:18:30.973Z,55.73
2019-02-26T11:21:02.556Z,46.20
2019-02-26T11:23:38.713Z,50.30
2019-02-26T11:26:10.705Z,46.83
2019-02-26T11:28:43.596Z,54.37
2019-02-26T11:31:16.539Z,47.83
2019-02-26T11:33:49.284Z,56.33
2019-02-26T11:36:25.067Z,50.50
2019-02-26T11:39:01.246Z,51.00
2019-02-26T11:41:33.525Z,52.73
2019-02-26T11:44:09.858Z,48.17
2019-02-26T11:46:44.505Z,54.10
2019-02-26T11:49:19.860Z,50.50
2019-02-26T11:51:52.559Z,47.17
2019-02-26T11:54:24.173Z,52.77
2019-02-26T11:56:57.405Z,48.47
2019-02-26T11:59:31.059Z,53.30
2019-02-26T12:02:04.413Z,54.40
2019-02-26T12:04:35.631Z,52.90
2019-02-26T12:07:09.711Z,50.00
2019-02-26T12:09:41.298Z,51.57
2019-02-26T12:12:13.521Z,45.03
2019-02-26T12:14:46.688Z,49.40
2019-02-26T12:17:20.047Z,48.43
2019-02-26T12:19:55.841Z,47.20
2019-02-26T12:22:29.627Z,55.80
2019-02-26T12:25:02.706Z,51.57
2019-02-26T12:27:36.217Z,50.57
2019-02-26T12:30:13.377Z,46.40
2019-02-26T12:32:47.227Z,40.43
2019-02-26T12:35:18.871Z,49.53
2019-02-26T12:37:56.674Z,43.90
2019-02-26T12:40:27.447Z,42.57
2019-02-26T12:43:01.998Z,39.77
2019-02-26T12:45:37.877Z,33.53
2019-02-26T12:48:10.260Z,35.40
2019-02-26T12:50:43.951Z,36.83
2019-02-26T12:53:18.038Z,42.23
2019-02-26T12:55:48.756Z,41.23
2019-02-26T12:58:21.394Z,37.20
2019-02-26T13:00:53.472Z,40.30
2019-02-26T13:03:24.956Z,42.43
2019-02-26T13:05:57.540Z,40.93
2019-02-26T13:08:29.026Z,42.87
2019-02-26T13:11:00.526Z,39.90
2019-02-26T13:13:32.024Z,42.47
2019-02-26T13:16:03.507Z,38.27
2019-02-26T13:18:35.414Z,40.67
2019-02-26T13:21:11.135Z,44.83
2019-02-26T13:23:40.288Z,35.47
2019-02-26T13:26:19.618Z,40.50
2019-02-26T13:28:52.686Z,35.60
2019-02-26T13:31:22.483Z,38.20
2019-02-26T13:33:54.412Z,38.30
2019-02-26T13:36:25.967Z,36.10
2019-02-26T13:38:57.437Z,37.27
2019-02-26T13:41:30.422Z,33.23
2019-02-26T13:44:02.250Z,40.43
2019-02-26T13:46:33.752Z,38.30
2019-02-26T13:49:05.323Z,32.03
2019-02-26T13:51:36.927Z,36.90
2019-02-26T13:54:08.447Z,36.23
2019-02-26T13:56:40.022Z,34.30
2019-02-26T13:59:11.581Z,32.73
2019-02-26T14:01:43.184Z,32.67
2019-02-26T14:04:14.914Z,37.60
2019-02-26T14:06:46.787Z,35.73
2019-02-26T14:09:18.547Z,36.90
2019-02-26T14:11:50.598Z,36.70
2019-02-26T14:14:22.252Z,43.57
2019-02-26T14:16:55.010Z,43.37
2019-02-26T14:19:28.401Z,38.17
2019-02-26T14:21:59.827Z,39.53
2019-02-26T14:24:31.361Z,38.30
2019-02-26T14:27:02.962Z,40.63
2019-02-26T14:29:34.461Z,38.77
2019-02-26T14:32:05.983Z,39.70
2019-02-26T14:34:41.220Z,40.10
2019-02-26T14:37:12.714Z,45.30
2019-02-26T14:39:44.174Z,45.60
2019-02-26T14:42:15.666Z,37.43
2019-02-26T14:44:47.140Z,45.27
2019-02-26T14:47:18.621Z,50.47
2019-02-26T14:49:50.230Z,44.13
2019-02-26T14:52:21.866Z,45.37
2019-02-26T14:54:53.430Z,44.63
2019-02-26T14:57:25.022Z,40.23
2019-02-26T14:59:56.709Z,52.00
2019-02-26T15:02:39.620Z,46.70
2019-02-26T15:05:11.450Z,46.87
2019-02-26T15:07:43.050Z,48.30
2019-02-26T15:10:15.038Z,48.73
2019-02-26T15:12:47.054Z,47.40
2019-02-26T15:15:19.161Z,53.97
2019-02-26T15:17:50.833Z,44.53
2019-02-26T15:20:22.259Z,40.73
2019-02-26T15:22:53.863Z,42.87
2019-02-26T15:25:25.478Z,45.20
2019-02-26T15:28:04.596Z,41.67
2019-02-26T15:30:33.826Z,50.57
2019-02-26T15:33:11.044Z,42.97
2019-02-26T15:35:39.420Z,46.07
2019-02-26T15:38:11.014Z,50.23
2019-02-26T15:40:47.988Z,44.53
2019-02-26T15:43:19.853Z,50.43
2019-02-26T15:45:52.898Z,54.23
2019-02-26T15:48:24.528Z,53.73
2019-02-26T15:50:56.075Z,49.20
2019-02-26T15:53:28.015Z,46.23
2019-02-26T15:56:00.008Z,56.40
2019-02-26T15:58:34.731Z,46.30
2019-02-26T16:01:12.837Z,52.50
2019-02-26T16:03:45.734Z,46.50
2019-02-26T16:06:17.719Z,44.80
2019-02-26T16:08:49.319Z,50.17
2019-02-26T16:11:20.853Z,48.40
2019-02-26T16:13:53.937Z,50.43
2019-02-26T16:16:26.574Z,44.53
2019-02-26T16:19:00.584Z,51.13
2019-02-26T16:21:31.328Z,51.47
2019-02-26T16:24:02.944Z,55.60
2019-02-26T16:26:34.411Z,56.33
2019-02-26T16:29:07.723Z,47.63
2019-02-26T16:31:39.409Z,56.60
2019-02-26T16:34:12.120Z,60.00
2019-02-26T16:36:43.862Z,54.87
2019-02-26T16:39:15.486Z,53.43
2019-02-26T16:41:47.111Z,57.07
2019-02-26T16:44:19.267Z,59.17
2019-02-26T16:46:50.773Z,55.33
2019-02-26T16:49:22.790Z,54.17
2019-02-26T16:51:55.051Z,58.63
2019-02-26T16:54:28.003Z,52.83
2019-02-26T16:56:59.493Z,63.23
2019-02-26T16:59:31.100Z,63.30
2019-02-26T17:02:02.905Z,55.60
2019-02-26T17:04:34.955Z,67.90
2019-02-26T17:07:11.315Z,52.60
2019-02-26T17:09:42.841Z,64.50
2019-02-26T17:12:14.696Z,56.33
2019-02-26T17:14:50.437Z,60.00
2019-02-26T17:17:21.262Z,54.70
2019-02-26T17:19:54.949Z,54.33
2019-02-26T17:22:28.483Z,65.53
2019-02-26T17:24:59.878Z,59.77
2019-02-26T17:27:31.507Z,59.43
2019-02-26T17:30:03.109Z,65.07
2019-02-26T17:32:35.766Z,54.73
2019-02-26T17:35:09.308Z,58.20
2019-02-26T17:37:41.640Z,54.73
2019-02-26T17:40:16.774Z,61.73
2019-02-26T17:42:51.195Z,62.20
2019-02-26T17:45:23.708Z,61.67
2019-02-26T17:47:57.510Z,61.97
2019-02-26T17:50:32.447Z,76.57
2019-02-26T17:53:05.719Z,58.30
2019-02-26T17:55:39.820Z,75.33
2019-02-26T17:58:14.329Z,71.00
2019-02-26T18:00:52.928Z,66.37
2019-02-26T18:03:25.761Z,71.60
2019-02-26T18:05:59.496Z,59.37
2019-02-26T18:08:31.230Z,64.20
2019-02-26T18:11:02.837Z,63.33
2019-02-26T18:13:34.610Z,63.70
2019-02-26T18:16:09.056Z,76.13
2019-02-26T18:18:40.272Z,74.23
2019-02-26T18:21:13.884Z,72.07
2019-02-26T18:23:46.100Z,67.50
2019-02-26T18:26:18.433Z,62.20
2019-02-26T18:28:53.143Z,80.57
2019-02-26T18:31:26.669Z,66.87
2019-02-26T18:33:58.676Z,65.43
2019-02-26T18:36:33.331Z,67.00
2019-02-26T18:39:10.442Z,66.60
2019-02-26T18:41:50.538Z,69.77
2019-02-26T18:44:17.848Z,87.57
2019-02-26T18:46:57.878Z,82.67
2019-02-26T18:49:38.875Z,67.77
2019-02-26T18:52:13.416Z,64.20
2019-02-26T18:54:45.562Z,59.80
2019-02-26T18:57:19.989Z,64.93
2019-02-26T18:59:54.243Z,71.30
2019-02-26T19:02:29.341Z,63.47
2019-02-26T19:05:01.214Z,72.07
2019-02-26T19:07:36.357Z,82.53
2019-02-26T19:10:17.771Z,68.27
2019-02-26T19:12:52.541Z,69.70
2019-02-26T19:15:29.499Z,80.03
2019-02-26T19:18:08.748Z,75.00
2019-02-26T19:20:44.330Z,78.30
2019-02-26T19:23:25.530Z,71.63
2019-02-26T19:25:57.688Z,69.90
2019-02-26T19:28:41.811Z,65.70
2019-02-26T19:31:15.758Z,72.43
2019-02-26T19:33:47.750Z,69.77
2019-02-26T19:36:29.116Z,60.23
2019-02-26T19:39:06.593Z,68.30
2019-02-26T19:41:48.326Z,70.73
2019-02-26T19:44:21.574Z,87.43
2019-02-26T19:46:56.378Z,62.70
2019-02-26T19:49:30.634Z,64.57
2019-02-26T19:52:09.456Z,72.47
2019-02-26T19:54:36.658Z,74.60
2019-02-26T19:57:10.001Z,77.63
2019-02-26T19:59:48.072Z,70.33
2019-02-26T20:02:24.713Z,69.17
2019-02-26T20:05:06.275Z,76.60
2019-02-26T20:07:39.660Z,79.17
2019-02-26T20:10:16.142Z,71.27
2019-02-26T20:12:51.734Z,66.97
2019-02-26T20:15:24.315Z,70.67
2019-02-26T20:17:58.074Z,82.27
2019-02-26T20:20:40.512Z,74.50
2019-02-26T20:23:07.168Z,81.60
2019-02-26T20:25:42.536Z,72.47
2019-02-26T20:28:13.107Z,73.80
2019-02-26T20:30:52.995Z,87.03
2019-02-26T20:33:26.494Z,79.57
2019-02-26T20:35:58.191Z,74.53
2019-02-26T20:38:35.102Z,76.63
2019-02-26T20:41:02.992Z,71.10
2019-02-26T20:43:36.761Z,72.10
2019-02-26T20:46:07.847Z,84.70
2019-02-26T20:48:39.401Z,77.30
2019-02-26T20:51:10.935Z,81.97
2019-02-26T20:53:42.431Z,90.33
2019-02-26T20:56:13.963Z,77.57
2019-02-26T20:58:45.521Z,73.97
2019-02-26T21:01:17.054Z,81.00
2019-02-26T21:03:48.675Z,74.07
2019-02-26T21:06:20.887Z,75.67
2019-02-26T21:08:53.288Z,85.10
2019-02-26T21:11:25.043Z,83.50
2019-02-26T21:13:56.673Z,84.73
2019-02-26T21:16:28.313Z,74.17
2019-02-26T21:19:02.702Z,82.93
2019-02-26T21:21:33.181Z,78.00
2019-02-26T21:24:04.705Z,80.13
2019-02-26T21:26:36.260Z,75.20
2019-02-26T21:29:07.765Z,78.97
2019-02-26T21:31:39.508Z,77.50
2019-02-26T21:34:11.959Z,76.43
2019-02-26T21:36:43.535Z,71.13
2019-02-26T21:39:22.758Z,80.27
2019-02-26T21:41:56.366Z,76.63
2019-02-26T21:44:47.086Z,79.30
2019-02-26T21:47:20.237Z,75.10
2019-02-26T21:49:53.000Z,74.07
2019-02-26T21:52:24.493Z,81.20
2019-02-26T21:54:58.194Z,93.37
2019-02-26T21:57:29.237Z,76.93
2019-02-26T22:00:05.127Z,74.60
2019-02-26T22:02:37.510Z,86.17
2019-02-26T22:05:18.782Z,89.87
2019-02-26T22:07:53.323Z,89.00
2019-02-26T22:10:29.720Z,85.43
2019-02-26T22:13:03.032Z,84.50
2019-02-26T22:15:36.267Z,91.43
2019-02-26T22:18:08.675Z,78.70
2019-02-26T22:20:40.720Z,85.57
2019-02-26T22:23:12.268Z,81.53
2019-02-26T22:25:44.148Z,81.77
2019-02-26T22:28:15.930Z,77.60
2019-02-26T22:30:47.611Z,88.83
2019-02-26T22:33:19.529Z,85.07
2019-02-26T22:35:51.192Z,74.97
2019-02-26T22:38:22.835Z,98.03
2019-02-26T22:40:54.568Z,82.07
2019-02-26T22:43:26.443Z,81.83
2019-02-26T22:46:00.719Z,88.10
2019-02-26T22:48:31.399Z,85.93
2019-02-26T22:51:02.960Z,83.20
2019-02-26T22:53:36.651Z,78.97
2019-02-26T22:56:07.934Z,83.47
2019-02-26T22:58:39.937Z,81.63
2019-02-26T23:01:30.096Z,80.33
2019-02-26T23:03:56.330Z,93.73
2019-02-26T23:06:31.713Z,74.17
2019-02-26T23:09:03.706Z,84.37
2019-02-26T23:11:37.495Z,84.97
2019-02-26T23:14:11.629Z,84.00
2019-02-26T23:16:43.464Z,90.30
2019-02-26T23:19:15.769Z,90.90
2019-02-26T23:21:49.947Z,82.87
2019-02-26T23:24:21.619Z,90.40
2019-02-26T23:26:53.256Z,90.03
2019-02-26T23:29:27.793Z,80.93
2019-02-26T23:31:59.839Z,91.43
2019-02-26T23:34:31.335Z,94.43
2019-02-26T23:37:03.195Z,75.17
2019-02-26T23:39:34.677Z,77.93
2019-02-26T23:42:06.684Z,78.57
2019-02-26T23:44:38.228Z,79.60
2019-02-26T23:47:09.822Z,74.93
2019-02-26T23:49:41.371Z,71.20
2019-02-26T23:52:12.841Z,77.10
2019-02-26T23:54:44.392Z,76.47
2019-02-26T23:57:16.046Z,74.40
2019-02-26T23:59:47.557Z,71.87
